Ursa, Illinois
Current Conditions -  °F | °C
As of 6:54 AM on Friday 31 Oct 2014 (Local Time) from KUIN Reporting Station
Clear Clear  
Wind Chill: 27°   Ceiling: Unl
Heat Index: 37°   Visibility: 10mi
Dew Point: 23°   Wind: 17mph
Humidity: 57%   Direction: 350°N
Pressure: 30.26"   Gusts: 32mph
Location:  40.07°N, 91.37°W
Report Text: KUIN 311154Z AUTO 35015G28KT 10SM CLR 03/M05 A3026 RMK AO2 PK WND 33030/1120 SLP250 70005 T00281050 10089 20028 53035
Loading
Personal Weather Stations






























Interactive Weather Map
Tropical Storm Tracking
New forecast layout! Learn more

10-Day Weather Forecast

Advertisements
Track Severe Weather on mobile